createdAt,value
2019-05-26T00:00:33.371Z,1.45
2019-05-26T00:03:02.764Z,2.42
2019-05-26T00:05:31.757Z,1.35
2019-05-26T00:08:00.683Z,1.00
2019-05-26T00:10:29.739Z,1.57
2019-05-26T00:12:59.537Z,1.15
2019-05-26T00:15:28.418Z,2.02
2019-05-26T00:17:57.676Z,1.25
2019-05-26T00:20:26.566Z,1.47
2019-05-26T00:22:55.629Z,1.52
2019-05-26T00:25:24.524Z,2.02
2019-05-26T00:27:53.647Z,1.00
2019-05-26T00:30:22.516Z,1.60
2019-05-26T00:32:51.429Z,1.30
2019-05-26T00:35:20.335Z,2.27
2019-05-26T00:37:50.742Z,1.20
2019-05-26T00:40:20.978Z,1.20
2019-05-26T00:42:49.848Z,1.40
2019-05-26T00:45:18.931Z,2.60
2019-05-26T00:47:48.032Z,1.50
2019-05-26T00:50:17.113Z,1.65
2019-05-26T00:52:45.994Z,1.65
2019-05-26T00:55:15.332Z,1.65
2019-05-26T00:57:44.305Z,2.15
2019-05-26T01:00:13.613Z,1.87
2019-05-26T01:02:42.661Z,1.30
2019-05-26T01:05:12.143Z,1.72
2019-05-26T01:07:41.024Z,1.50
2019-05-26T01:10:10.362Z,1.15
2019-05-26T01:12:39.533Z,1.22
2019-05-26T01:15:09.605Z,1.32
2019-05-26T01:17:38.524Z,1.00
2019-05-26T01:20:07.697Z,1.60
2019-05-26T01:22:36.594Z,1.00
2019-05-26T01:25:08.644Z,1.22
2019-05-26T01:27:37.635Z,1.45
2019-05-26T01:30:07.597Z,1.52
2019-05-26T01:32:36.597Z,2.62
2019-05-26T01:35:08.647Z,1.82
2019-05-26T01:37:39.915Z,1.72
2019-05-26T01:40:09.464Z,1.62
2019-05-26T01:42:38.325Z,1.52
2019-05-26T01:45:08.209Z,2.00
2019-05-26T01:47:37.224Z,2.55
2019-05-26T01:50:07.798Z,1.75
2019-05-26T01:52:36.671Z,1.22
2019-05-26T01:55:11.470Z,1.05
2019-05-26T01:57:40.345Z,2.83
2019-05-26T02:00:10.739Z,2.52
2019-05-26T02:02:39.646Z,1.77
2019-05-26T02:05:08.598Z,1.27
2019-05-26T02:07:37.476Z,1.52
2019-05-26T02:10:08.103Z,1.90
2019-05-26T02:12:36.976Z,1.40
2019-05-26T02:15:07.086Z,1.05
2019-05-26T02:17:35.997Z,1.00
2019-05-26T02:20:06.983Z,1.00
2019-05-26T02:22:35.886Z,1.30
2019-05-26T02:25:09.048Z,1.17
2019-05-26T02:27:37.933Z,1.20
2019-05-26T02:30:08.905Z,1.20
2019-05-26T02:32:37.814Z,2.15
2019-05-26T02:35:08.043Z,1.10
2019-05-26T02:37:36.970Z,2.02
2019-05-26T02:40:08.510Z,1.77
2019-05-26T02:42:37.581Z,1.10
2019-05-26T02:45:09.346Z,1.98
2019-05-26T02:47:38.332Z,1.17
2019-05-26T02:50:08.207Z,1.10
2019-05-26T02:52:37.089Z,1.12
2019-05-26T02:55:08.024Z,2.33
2019-05-26T02:57:36.881Z,1.65
2019-05-26T03:00:10.812Z,2.12
2019-05-26T03:02:40.147Z,1.45
2019-05-26T03:05:12.390Z,1.82
2019-05-26T03:07:45.315Z,1.00
2019-05-26T03:10:15.055Z,1.72
2019-05-26T03:12:46.246Z,1.12
2019-05-26T03:15:16.364Z,1.72
2019-05-26T03:17:47.601Z,1.50
2019-05-26T03:20:16.673Z,1.17
2019-05-26T03:22:48.771Z,1.52
2019-05-26T03:25:17.638Z,1.50
2019-05-26T03:27:46.536Z,2.52
2019-05-26T03:30:15.512Z,2.37
2019-05-26T03:32:44.552Z,1.50
2019-05-26T03:35:13.561Z,1.65
2019-05-26T03:37:42.483Z,1.55
2019-05-26T03:40:11.444Z,2.00
2019-05-26T03:42:40.320Z,1.50
2019-05-26T03:45:09.876Z,2.65
2019-05-26T03:47:39.014Z,2.98
2019-05-26T03:50:08.593Z,1.15
2019-05-26T03:52:37.542Z,1.15
2019-05-26T03:55:07.424Z,1.10
2019-05-26T03:57:36.318Z,1.32
2019-05-26T04:00:08.391Z,2.30
2019-05-26T04:02:37.267Z,1.42
2019-05-26T04:05:09.646Z,2.08
2019-05-26T04:07:38.620Z,1.52
2019-05-26T04:10:09.025Z,2.50
2019-05-26T04:12:37.895Z,1.27
2019-05-26T04:15:08.109Z,1.12
2019-05-26T04:17:36.989Z,1.57
2019-05-26T04:20:06.785Z,1.05
2019-05-26T04:22:35.683Z,2.20
2019-05-26T04:25:06.074Z,1.65
2019-05-26T04:27:35.058Z,1.82
2019-05-26T04:30:05.904Z,2.85
2019-05-26T04:32:34.871Z,2.55
2019-05-26T04:35:05.165Z,1.45
2019-05-26T04:37:34.371Z,2.20
2019-05-26T04:40:25.046Z,1.42
2019-05-26T04:42:35.797Z,2.60
2019-05-26T04:45:07.039Z,1.30
2019-05-26T04:47:35.962Z,1.35
2019-05-26T04:50:08.325Z,1.85
2019-05-26T04:52:37.885Z,1.62
2019-05-26T04:55:08.359Z,1.15
2019-05-26T04:57:37.300Z,1.57
2019-05-26T05:00:08.748Z,2.25
2019-05-26T05:02:38.732Z,1.45
2019-05-26T05:05:09.232Z,1.40
2019-05-26T05:07:38.243Z,1.55
2019-05-26T05:10:09.019Z,1.10
2019-05-26T05:12:37.934Z,1.37
2019-05-26T05:15:10.181Z,1.05
2019-05-26T05:17:39.048Z,0.80
2019-05-26T05:20:08.252Z,1.05
2019-05-26T05:22:37.235Z,0.90
2019-05-26T05:25:14.189Z,1.70
2019-05-26T05:27:39.082Z,2.52
2019-05-26T05:30:09.726Z,2.45
2019-05-26T05:32:38.725Z,2.20
2019-05-26T05:35:09.198Z,3.22
2019-05-26T05:37:38.333Z,2.87
2019-05-26T05:40:08.657Z,2.70
2019-05-26T05:42:37.749Z,1.98
2019-05-26T05:45:10.392Z,1.67
2019-05-26T05:47:39.292Z,1.85
2019-05-26T05:50:09.082Z,1.87
2019-05-26T05:52:38.744Z,2.58
2019-05-26T05:55:07.798Z,1.87
2019-05-26T05:57:36.702Z,1.65
2019-05-26T06:00:07.454Z,2.20
2019-05-26T06:02:36.358Z,2.75
2019-05-26T06:05:09.244Z,1.70
2019-05-26T06:07:38.175Z,2.15
2019-05-26T06:10:11.321Z,1.80
2019-05-26T06:12:40.193Z,2.25
2019-05-26T06:15:12.280Z,2.90
2019-05-26T06:17:41.890Z,2.27
2019-05-26T06:20:11.342Z,2.47
2019-05-26T06:22:40.270Z,2.83
2019-05-26T06:25:09.471Z,2.55
2019-05-26T06:27:38.553Z,2.83
2019-05-26T06:30:09.914Z,1.87
2019-05-26T06:32:38.799Z,2.75
2019-05-26T06:35:07.790Z,1.30
2019-05-26T06:37:36.733Z,2.67
2019-05-26T06:40:07.150Z,1.77
2019-05-26T06:42:36.047Z,1.60
2019-05-26T06:45:07.177Z,2.17
2019-05-26T06:47:36.198Z,2.75
2019-05-26T06:50:08.148Z,1.15
2019-05-26T06:52:37.118Z,2.25
2019-05-26T06:55:06.634Z,2.40
2019-05-26T06:57:36.576Z,1.75
2019-05-26T07:00:08.818Z,1.65
2019-05-26T07:02:38.357Z,1.47
2019-05-26T07:05:10.489Z,0.70
2019-05-26T07:07:39.435Z,1.52
2019-05-26T07:10:08.555Z,1.40
2019-05-26T07:12:37.743Z,2.10
2019-05-26T07:15:08.374Z,1.45
2019-05-26T07:17:37.380Z,2.33
2019-05-26T07:20:07.712Z,1.92
2019-05-26T07:22:36.757Z,2.15
2019-05-26T07:25:08.051Z,1.87
2019-05-26T07:27:37.097Z,1.87
2019-05-26T07:30:07.361Z,1.90
2019-05-26T07:32:36.379Z,1.10
2019-05-26T07:35:09.331Z,1.80
2019-05-26T07:37:38.284Z,1.32
2019-05-26T07:40:07.680Z,1.60
2019-05-26T07:42:37.003Z,1.30
2019-05-26T07:45:06.945Z,1.60
2019-05-26T07:47:35.998Z,1.75
2019-05-26T07:50:06.801Z,1.05
2019-05-26T07:52:35.753Z,1.92
2019-05-26T07:55:05.933Z,2.15
2019-05-26T07:57:35.148Z,1.85
2019-05-26T08:00:06.165Z,1.67
2019-05-26T08:02:35.208Z,1.98
2019-05-26T08:05:06.403Z,1.65
2019-05-26T08:07:35.403Z,1.40
2019-05-26T08:10:07.394Z,1.90
2019-05-26T08:12:36.828Z,2.37
2019-05-26T08:15:09.510Z,1.80
2019-05-26T08:17:38.498Z,1.22
2019-05-26T08:20:08.702Z,1.20
2019-05-26T08:22:37.741Z,1.55
2019-05-26T08:25:10.252Z,1.42
2019-05-26T08:27:39.181Z,1.37
2019-05-26T08:30:08.706Z,1.50
2019-05-26T08:32:37.588Z,1.47
2019-05-26T08:35:08.961Z,1.75
2019-05-26T08:37:37.917Z,1.82
2019-05-26T08:40:20.452Z,1.98
2019-05-26T08:42:50.485Z,1.42
2019-05-26T08:45:21.957Z,1.42
2019-05-26T08:47:51.376Z,1.52
2019-05-26T08:50:20.999Z,1.87
2019-05-26T08:52:49.902Z,1.52
2019-05-26T08:55:19.087Z,0.70
2019-05-26T08:57:48.050Z,1.00
2019-05-26T09:00:18.843Z,1.22
2019-05-26T09:02:47.712Z,1.15
2019-05-26T09:05:17.025Z,1.22
2019-05-26T09:07:46.301Z,1.20
2019-05-26T09:10:15.888Z,1.00
2019-05-26T09:12:57.836Z,1.37
2019-05-26T09:15:16.571Z,1.00
2019-05-26T09:17:45.568Z,1.10
2019-05-26T09:20:16.410Z,0.93
2019-05-26T09:22:45.576Z,1.40
2019-05-26T09:25:15.307Z,1.30
2019-05-26T09:27:48.900Z,1.52
2019-05-26T09:30:20.286Z,1.90
2019-05-26T09:32:49.583Z,1.10
2019-05-26T09:35:18.757Z,1.20
2019-05-26T09:37:47.869Z,1.42
2019-05-26T09:40:17.289Z,1.00
2019-05-26T09:42:46.783Z,1.30
2019-05-26T09:45:17.359Z,0.90
2019-05-26T09:47:46.242Z,1.10
2019-05-26T09:50:15.684Z,0.90
2019-05-26T09:52:44.567Z,1.00
2019-05-26T09:55:15.150Z,1.05
2019-05-26T09:57:44.036Z,0.70
2019-05-26T10:00:16.072Z,1.30
2019-05-26T10:02:44.243Z,0.80
2019-05-26T10:05:13.428Z,0.65
2019-05-26T10:07:42.416Z,0.95
2019-05-26T10:10:15.723Z,1.17
2019-05-26T10:12:46.060Z,1.55
2019-05-26T10:15:16.076Z,0.95
2019-05-26T10:17:47.193Z,1.17
2019-05-26T10:20:17.817Z,1.10
2019-05-26T10:22:47.231Z,1.00
2019-05-26T10:25:16.275Z,0.90
2019-05-26T10:27:46.721Z,0.82
2019-05-26T10:30:16.228Z,0.68
2019-05-26T10:32:45.205Z,1.22
2019-05-26T10:35:14.611Z,0.75
2019-05-26T10:37:43.487Z,0.75
2019-05-26T10:40:20.075Z,1.15
2019-05-26T10:42:51.891Z,0.90
2019-05-26T10:45:23.955Z,0.95
2019-05-26T10:47:52.897Z,1.00
2019-05-26T10:50:21.920Z,0.62
2019-05-26T10:52:50.863Z,0.78
2019-05-26T10:55:20.125Z,1.20
2019-05-26T10:57:49.012Z,1.12
2019-05-26T11:00:18.769Z,1.10
2019-05-26T11:02:47.669Z,1.07
2019-05-26T11:05:16.672Z,0.88
2019-05-26T11:07:45.656Z,1.40
2019-05-26T11:10:15.027Z,0.82
2019-05-26T11:12:43.948Z,1.00
2019-05-26T11:15:13.282Z,1.20
2019-05-26T11:17:42.169Z,1.22
2019-05-26T11:20:11.961Z,0.78
2019-05-26T11:22:40.880Z,1.12
2019-05-26T11:25:11.248Z,0.70
2019-05-26T11:27:41.088Z,1.05
2019-05-26T11:30:11.600Z,0.80
2019-05-26T11:32:40.593Z,1.27
2019-05-26T11:35:09.973Z,0.88
2019-05-26T11:37:38.860Z,0.80
2019-05-26T11:40:07.855Z,1.45
2019-05-26T11:42:36.925Z,1.40
2019-05-26T11:45:08.986Z,0.80
2019-05-26T11:47:57.200Z,1.35
2019-05-26T11:50:26.191Z,1.30
2019-05-26T11:52:55.148Z,1.30
2019-05-26T11:55:27.700Z,1.12
2019-05-26T11:57:55.252Z,0.70
2019-05-26T12:00:24.358Z,1.35
2019-05-26T12:02:53.334Z,1.00
2019-05-26T12:05:22.245Z,1.22
2019-05-26T12:07:51.160Z,0.80
2019-05-26T12:10:20.069Z,1.25
2019-05-26T12:12:49.040Z,0.78
2019-05-26T12:15:18.534Z,1.35
2019-05-26T12:17:47.576Z,1.35
2019-05-26T12:20:16.779Z,0.78
2019-05-26T12:22:46.344Z,0.90
2019-05-26T12:25:16.672Z,1.17
2019-05-26T12:27:45.686Z,1.25
2019-05-26T12:30:15.971Z,1.52
2019-05-26T12:32:44.965Z,1.32
2019-05-26T12:35:14.147Z,0.62
2019-05-26T12:37:43.010Z,0.85
2019-05-26T12:40:12.393Z,0.85
2019-05-26T12:42:41.368Z,1.25
2019-05-26T12:45:11.017Z,0.88
2019-05-26T12:47:39.942Z,0.88
2019-05-26T12:50:09.567Z,1.00
2019-05-26T12:52:39.163Z,1.40
2019-05-26T12:55:27.368Z,1.17
2019-05-26T12:57:56.257Z,1.00
2019-05-26T13:00:25.263Z,1.30
2019-05-26T13:02:54.239Z,1.02
2019-05-26T13:05:23.089Z,0.90
2019-05-26T13:07:52.024Z,1.05
2019-05-26T13:10:21.711Z,0.80
2019-05-26T13:12:50.612Z,0.80
2019-05-26T13:15:20.369Z,1.05
2019-05-26T13:17:49.303Z,1.92
2019-05-26T13:20:20.050Z,1.00
2019-05-26T13:22:48.952Z,0.62
2019-05-26T13:25:18.089Z,0.85
2019-05-26T13:27:46.995Z,0.98
2019-05-26T13:30:21.456Z,0.75
2019-05-26T13:32:50.389Z,0.40
2019-05-26T13:35:21.118Z,0.80
2019-05-26T13:37:50.012Z,1.20
2019-05-26T13:40:19.030Z,1.07
2019-05-26T13:42:47.933Z,0.70
2019-05-26T13:45:22.900Z,0.90
2019-05-26T13:47:59.861Z,0.80
2019-05-26T13:50:28.738Z,0.70
2019-05-26T13:52:57.691Z,0.90
2019-05-26T13:55:26.714Z,1.02
2019-05-26T13:57:55.681Z,1.00
2019-05-26T14:00:24.774Z,0.98
2019-05-26T14:02:53.797Z,1.05
2019-05-26T14:05:22.698Z,0.93
2019-05-26T14:07:51.586Z,0.98
2019-05-26T14:10:35.347Z,1.30
2019-05-26T14:13:05.424Z,0.93
2019-05-26T14:15:38.611Z,0.65
2019-05-26T14:18:06.138Z,0.80
2019-05-26T14:20:37.327Z,0.68
2019-05-26T14:23:07.638Z,0.90
2019-05-26T14:25:36.865Z,0.78
2019-05-26T14:28:07.182Z,0.95
2019-05-26T14:30:37.502Z,1.57
2019-05-26T14:33:06.945Z,1.00
2019-05-26T14:35:35.849Z,1.20
2019-05-26T14:38:04.863Z,1.07
2019-05-26T14:40:33.869Z,1.22
2019-05-26T14:43:02.800Z,2.10
2019-05-26T14:45:31.706Z,1.32
2019-05-26T14:48:00.659Z,1.32
2019-05-26T14:50:29.855Z,0.70
2019-05-26T14:52:58.753Z,1.90
2019-05-26T14:55:27.701Z,1.07
2019-05-26T14:57:56.601Z,1.55
2019-05-26T15:00:27.177Z,1.02
2019-05-26T15:02:56.154Z,1.80
2019-05-26T15:05:25.053Z,1.65
2019-05-26T15:07:53.929Z,1.07
2019-05-26T15:10:22.915Z,1.60
2019-05-26T15:12:52.687Z,1.17
2019-05-26T15:15:21.720Z,0.93
2019-05-26T15:17:50.632Z,0.82
2019-05-26T15:20:20.128Z,1.30
2019-05-26T15:22:49.015Z,0.90
2019-05-26T15:25:18.015Z,1.70
2019-05-26T15:27:47.032Z,0.90
2019-05-26T15:30:16.110Z,1.57
2019-05-26T15:32:45.030Z,0.93
2019-05-26T15:35:16.000Z,1.27
2019-05-26T15:37:44.948Z,0.93
2019-05-26T15:40:14.686Z,0.85
2019-05-26T15:42:43.575Z,1.00
2019-05-26T15:45:12.614Z,0.90
2019-05-26T15:47:41.583Z,0.68
2019-05-26T15:50:13.706Z,1.27
2019-05-26T15:52:42.362Z,1.10
2019-05-26T15:55:11.505Z,1.02
2019-05-26T15:57:41.706Z,0.68
2019-05-26T16:00:11.099Z,1.20
2019-05-26T16:02:40.039Z,0.90
2019-05-26T16:05:09.403Z,0.60
2019-05-26T16:07:38.302Z,1.35
2019-05-26T16:10:08.235Z,1.30
2019-05-26T16:12:37.215Z,1.07
2019-05-26T16:15:08.715Z,1.00
2019-05-26T16:17:38.967Z,1.45
2019-05-26T16:20:09.730Z,1.40
2019-05-26T16:22:38.646Z,1.42
2019-05-26T16:25:07.973Z,1.37
2019-05-26T16:27:37.061Z,1.20
2019-05-26T16:30:09.060Z,1.45
2019-05-26T16:32:38.268Z,1.15
2019-05-26T16:35:07.555Z,1.10
2019-05-26T16:37:36.474Z,1.20
2019-05-26T16:40:09.186Z,1.20
2019-05-26T16:42:38.083Z,1.32
2019-05-26T16:45:08.397Z,2.00
2019-05-26T16:47:37.343Z,1.52
2019-05-26T16:50:08.293Z,1.65
2019-05-26T16:52:37.317Z,1.80
2019-05-26T16:55:08.155Z,1.80
2019-05-26T16:57:37.059Z,1.40
2019-05-26T17:00:08.717Z,1.40
2019-05-26T17:02:37.947Z,1.55
2019-05-26T17:05:08.412Z,1.42
2019-05-26T17:07:37.379Z,1.32
2019-05-26T17:10:08.055Z,1.80
2019-05-26T17:12:36.959Z,2.02
2019-05-26T17:15:07.720Z,1.50
2019-05-26T17:17:36.698Z,1.60
2019-05-26T17:20:07.546Z,1.80
2019-05-26T17:22:36.435Z,1.72
2019-05-26T17:25:06.567Z,2.50
2019-05-26T17:27:35.920Z,2.02
2019-05-26T17:30:06.500Z,2.50
2019-05-26T17:32:35.527Z,2.17
2019-05-26T17:35:06.373Z,1.90
2019-05-26T17:37:35.371Z,3.10
2019-05-26T17:40:09.819Z,2.87
2019-05-26T17:42:38.770Z,2.90
2019-05-26T17:45:08.563Z,2.40
2019-05-26T17:47:40.576Z,3.42
2019-05-26T17:50:10.265Z,2.87
2019-05-26T17:52:39.161Z,2.77
2019-05-26T17:55:09.083Z,2.30
2019-05-26T17:57:38.059Z,2.55
2019-05-26T18:00:11.125Z,2.85
2019-05-26T18:02:40.118Z,3.05
2019-05-26T18:05:09.381Z,2.70
2019-05-26T18:07:38.335Z,2.47
2019-05-26T18:10:07.935Z,2.70
2019-05-26T18:12:36.829Z,3.33
2019-05-26T18:15:09.369Z,2.92
2019-05-26T18:17:46.878Z,2.60
2019-05-26T18:20:09.122Z,3.70
2019-05-26T18:22:38.078Z,3.40
2019-05-26T18:25:08.308Z,2.72
2019-05-26T18:27:37.273Z,4.08
2019-05-26T18:30:07.743Z,3.85
2019-05-26T18:32:36.710Z,3.45
2019-05-26T18:35:07.214Z,3.80
2019-05-26T18:37:36.245Z,3.40
2019-05-26T18:40:06.775Z,3.92
2019-05-26T18:42:35.703Z,3.40
2019-05-26T18:45:06.714Z,3.15
2019-05-26T18:47:35.593Z,3.42
2019-05-26T18:50:06.323Z,3.15
2019-05-26T18:52:35.341Z,2.70
2019-05-26T18:55:05.153Z,2.50
2019-05-26T18:57:34.134Z,2.47
2019-05-26T19:00:03.452Z,2.58
2019-05-26T19:02:32.328Z,2.30
2019-05-26T19:05:01.227Z,1.67
2019-05-26T19:07:30.174Z,1.00
2019-05-26T19:09:59.075Z,0.70
2019-05-26T19:12:27.964Z,1.10
2019-05-26T19:14:56.948Z,0.65
2019-05-26T19:17:25.840Z,0.40
2019-05-26T19:19:54.747Z,0.50
2019-05-26T19:22:23.689Z,0.50
2019-05-26T19:24:52.682Z,0.40
2019-05-26T19:27:21.735Z,0.40
2019-05-26T19:29:50.713Z,0.55
2019-05-26T19:32:19.582Z,0.85
2019-05-26T19:34:48.459Z,1.05
2019-05-26T19:37:17.404Z,0.90
2019-05-26T19:39:46.416Z,0.60
2019-05-26T19:42:15.326Z,0.70
2019-05-26T19:44:44.289Z,0.65
2019-05-26T19:47:13.219Z,0.60
2019-05-26T19:49:42.115Z,0.60
2019-05-26T19:52:11.061Z,0.60
2019-05-26T19:54:40.004Z,0.50
2019-05-26T19:57:08.959Z,0.50
2019-05-26T19:59:37.905Z,0.50
2019-05-26T20:02:17.943Z,0.80
2019-05-26T20:04:37.446Z,0.72
2019-05-26T20:07:06.467Z,0.40
2019-05-26T20:09:35.382Z,0.50
2019-05-26T20:12:04.283Z,0.55
2019-05-26T20:14:33.495Z,0.40
2019-05-26T20:17:06.986Z,2.55
2019-05-26T20:19:39.042Z,2.40
2019-05-26T20:22:07.943Z,1.55
2019-05-26T20:24:36.927Z,1.62
2019-05-26T20:27:05.941Z,1.72
2019-05-26T20:29:34.831Z,1.37
2019-05-26T20:32:03.746Z,1.30
2019-05-26T20:34:32.721Z,1.20
2019-05-26T20:37:01.630Z,1.07
2019-05-26T20:39:30.508Z,0.98
2019-05-26T20:41:59.511Z,0.75
2019-05-26T20:44:31.706Z,0.85
2019-05-26T20:47:00.576Z,1.50
2019-05-26T20:49:44.350Z,0.72
2019-05-26T20:52:00.038Z,1.42
2019-05-26T20:54:28.937Z,0.85
2019-05-26T20:56:58.043Z,0.90
2019-05-26T20:59:26.965Z,1.00
2019-05-26T21:01:56.057Z,0.75
2019-05-26T21:04:24.990Z,0.90
2019-05-26T21:06:53.905Z,0.82
2019-05-26T21:09:22.807Z,0.60
2019-05-26T21:12:13.171Z,0.90
2019-05-26T21:14:50.925Z,1.12
2019-05-26T21:17:20.023Z,0.95
2019-05-26T21:19:49.116Z,0.90
2019-05-26T21:22:18.029Z,0.98
2019-05-26T21:24:50.880Z,1.02
2019-05-26T21:27:20.122Z,0.65
2019-05-26T21:29:51.168Z,0.82
2019-05-26T21:32:20.253Z,0.90
2019-05-26T21:34:49.159Z,0.90
2019-05-26T21:37:18.070Z,0.95
2019-05-26T21:39:47.013Z,0.70
2019-05-26T21:42:16.175Z,1.62
2019-05-26T21:44:45.392Z,1.05
2019-05-26T21:47:14.435Z,0.98
2019-05-26T21:49:43.343Z,0.80
2019-05-26T21:52:12.245Z,1.05
2019-05-26T21:54:41.477Z,0.62
2019-05-26T21:57:10.491Z,0.80
2019-05-26T21:59:39.501Z,0.80
2019-05-26T22:02:08.667Z,0.70
2019-05-26T22:04:37.579Z,0.88
2019-05-26T22:07:06.586Z,0.70
2019-05-26T22:09:37.771Z,1.02
2019-05-26T22:12:09.318Z,0.90
2019-05-26T22:14:38.237Z,0.98
2019-05-26T22:17:10.120Z,0.55
2019-05-26T22:19:39.109Z,0.70
2019-05-26T22:22:08.130Z,0.65
2019-05-26T22:24:37.050Z,0.62
2019-05-26T22:27:06.092Z,0.60
2019-05-26T22:29:39.528Z,0.88
2019-05-26T22:32:08.598Z,0.70
2019-05-26T22:34:42.184Z,0.88
2019-05-26T22:37:19.063Z,0.50
2019-05-26T22:39:48.060Z,0.60
2019-05-26T22:42:16.979Z,0.40
2019-05-26T22:44:45.933Z,0.68
2019-05-26T22:47:14.841Z,0.45
2019-05-26T22:49:43.738Z,0.30
2019-05-26T22:52:12.741Z,0.50
2019-05-26T22:54:42.141Z,0.40
2019-05-26T22:57:11.014Z,0.50
2019-05-26T22:59:40.066Z,0.47
2019-05-26T23:02:08.965Z,0.45
2019-05-26T23:05:08.591Z,0.60
2019-05-26T23:07:38.563Z,0.50
2019-05-26T23:10:08.618Z,0.30
2019-05-26T23:12:37.528Z,0.60
2019-05-26T23:15:11.424Z,0.55
2019-05-26T23:17:41.595Z,0.50
2019-05-26T23:20:11.034Z,0.40
2019-05-26T23:22:39.963Z,0.47
2019-05-26T23:25:09.276Z,0.40
2019-05-26T23:27:45.555Z,0.20
2019-05-26T23:30:14.590Z,0.70
2019-05-26T23:32:43.516Z,0.80
2019-05-26T23:35:12.710Z,0.20
2019-05-26T23:37:41.648Z,0.95
2019-05-26T23:40:10.893Z,0.40
2019-05-26T23:42:39.896Z,0.30
2019-05-26T23:45:08.926Z,0.25
2019-05-26T23:47:37.809Z,0.20
2019-05-26T23:50:10.945Z,0.30
2019-05-26T23:52:39.871Z,0.23
2019-05-26T23:55:09.485Z,0.15
2019-05-26T23:57:44.270Z,0.20
